createdAt,value
2018-07-15T00:01:01.620Z,514
2018-07-15T00:02:08.837Z,515
2018-07-15T00:03:16.098Z,514
2018-07-15T00:04:23.300Z,514
2018-07-15T00:05:30.507Z,515
2018-07-15T00:06:37.721Z,514
2018-07-15T00:07:44.930Z,514
2018-07-15T00:08:52.149Z,514
2018-07-15T00:09:59.353Z,513
2018-07-15T00:11:06.565Z,514
2018-07-15T00:12:13.774Z,514
2018-07-15T00:13:20.982Z,514
2018-07-15T00:14:28.201Z,514
2018-07-15T00:15:35.130Z,514
2018-07-15T00:16:42.339Z,514
2018-07-15T00:17:49.551Z,514
2018-07-15T00:18:56.762Z,514
2018-07-15T00:20:03.706Z,514
2018-07-15T00:21:10.921Z,513
2018-07-15T00:22:17.857Z,513
2018-07-15T00:23:25.064Z,513
2018-07-15T00:24:32.282Z,514
2018-07-15T00:25:39.220Z,514
2018-07-15T00:26:46.430Z,513
2018-07-15T00:27:53.358Z,513
2018-07-15T00:29:00.569Z,512
2018-07-15T00:30:07.237Z,513
2018-07-15T00:31:14.448Z,513
2018-07-15T00:32:21.661Z,513
2018-07-15T00:33:28.866Z,513
2018-07-15T00:34:36.081Z,514
2018-07-15T00:35:43.299Z,513
2018-07-15T00:36:50.511Z,513
2018-07-15T00:37:57.729Z,514
2018-07-15T00:39:04.964Z,514
2018-07-15T00:40:12.163Z,513
2018-07-15T00:41:19.377Z,514
2018-07-15T00:42:26.590Z,513
2018-07-15T00:43:33.807Z,513
2018-07-15T00:44:41.030Z,513
2018-07-15T00:45:48.238Z,513
2018-07-15T00:46:55.453Z,513
2018-07-15T00:48:02.661Z,513
2018-07-15T00:49:09.871Z,512
2018-07-15T00:50:17.083Z,512
2018-07-15T00:51:24.300Z,512
2018-07-15T00:52:31.529Z,512
2018-07-15T00:53:38.743Z,513
2018-07-15T00:54:45.954Z,513
2018-07-15T00:55:53.167Z,514
2018-07-15T00:57:00.380Z,513
2018-07-15T00:58:07.593Z,513
2018-07-15T00:59:14.809Z,513
2018-07-15T01:00:22.017Z,513
2018-07-15T01:01:29.230Z,513
2018-07-15T01:02:36.446Z,512
2018-07-15T01:03:43.657Z,513
2018-07-15T01:04:50.866Z,513
2018-07-15T01:05:58.076Z,513
2018-07-15T01:07:05.287Z,513
2018-07-15T01:08:12.496Z,512
2018-07-15T01:09:19.705Z,513
2018-07-15T01:10:26.916Z,513
2018-07-15T01:11:34.127Z,513
2018-07-15T01:12:41.336Z,513
2018-07-15T01:13:48.545Z,512
2018-07-15T01:14:55.792Z,513
2018-07-15T01:16:03.006Z,512
2018-07-15T01:17:10.216Z,512
2018-07-15T01:18:17.434Z,512
2018-07-15T01:19:24.643Z,512
2018-07-15T01:20:31.853Z,512
2018-07-15T01:21:39.063Z,513
2018-07-15T01:22:46.277Z,512
2018-07-15T01:23:53.493Z,512
2018-07-15T01:25:00.706Z,511
2018-07-15T01:26:07.917Z,511
2018-07-15T01:27:15.128Z,512
2018-07-15T01:28:22.339Z,512
2018-07-15T01:29:29.550Z,512
2018-07-15T01:30:36.758Z,511
2018-07-15T01:31:43.991Z,510
2018-07-15T01:32:51.219Z,511
2018-07-15T01:33:58.160Z,510
2018-07-15T01:35:05.377Z,510
2018-07-15T01:36:12.581Z,510
2018-07-15T01:37:19.268Z,510
2018-07-15T01:38:26.477Z,510
2018-07-15T01:39:33.689Z,510
2018-07-15T01:40:40.895Z,510
2018-07-15T01:41:47.835Z,510
2018-07-15T01:42:55.050Z,510
2018-07-15T01:44:02.264Z,510
2018-07-15T01:45:09.199Z,510
2018-07-15T01:46:16.411Z,509
2018-07-15T01:47:23.623Z,509
2018-07-15T01:48:30.831Z,509
2018-07-15T01:49:38.041Z,509
2018-07-15T01:50:44.975Z,509
2018-07-15T01:51:51.915Z,509
2018-07-15T01:52:59.118Z,509
2018-07-15T01:54:06.332Z,510
2018-07-15T01:55:13.544Z,510
2018-07-15T01:56:20.758Z,510
2018-07-15T01:57:27.967Z,509
2018-07-15T01:58:35.179Z,509
2018-07-15T01:59:42.118Z,509
2018-07-15T02:00:49.328Z,509
2018-07-15T02:01:56.540Z,509
2018-07-15T02:03:03.744Z,510
2018-07-15T02:04:10.959Z,510
2018-07-15T02:05:17.896Z,510
2018-07-15T02:06:25.108Z,510
2018-07-15T02:07:32.318Z,510
2018-07-15T02:08:39.528Z,511
2018-07-15T02:09:46.774Z,510
2018-07-15T02:10:53.987Z,510
2018-07-15T02:12:01.260Z,510
2018-07-15T02:13:08.460Z,509
2018-07-15T02:14:15.672Z,510
2018-07-15T02:15:22.884Z,510
2018-07-15T02:16:30.094Z,509
2018-07-15T02:17:37.308Z,509
2018-07-15T02:18:44.512Z,509
2018-07-15T02:19:51.727Z,509
2018-07-15T02:20:58.666Z,510
2018-07-15T02:22:05.875Z,510
2018-07-15T02:23:12.532Z,508
2018-07-15T02:24:19.741Z,509
2018-07-15T02:25:26.951Z,509
2018-07-15T02:26:34.157Z,509
2018-07-15T02:27:41.367Z,510
2018-07-15T02:28:48.578Z,508
2018-07-15T02:29:55.788Z,509
2018-07-15T02:31:03.070Z,509
2018-07-15T02:32:10.266Z,509
2018-07-15T02:33:17.477Z,509
2018-07-15T02:34:24.685Z,509
2018-07-15T02:35:31.625Z,509
2018-07-15T02:36:38.949Z,509
2018-07-15T02:37:46.228Z,509
2018-07-15T02:38:53.436Z,509
2018-07-15T02:40:00.659Z,508
2018-07-15T02:41:07.876Z,509
2018-07-15T02:42:15.088Z,509
2018-07-15T02:43:22.318Z,509
2018-07-15T02:44:29.528Z,509
2018-07-15T02:45:36.740Z,509
2018-07-15T02:46:43.949Z,509
2018-07-15T02:47:51.157Z,510
2018-07-15T02:48:58.098Z,510
2018-07-15T02:50:05.318Z,509
2018-07-15T02:51:12.533Z,510
2018-07-15T02:52:19.730Z,509
2018-07-15T02:53:26.959Z,509
2018-07-15T02:54:34.170Z,508
2018-07-15T02:55:41.383Z,508
2018-07-15T02:56:48.592Z,509
2018-07-15T02:57:55.532Z,509
2018-07-15T02:59:02.747Z,508
2018-07-15T03:00:09.956Z,509
2018-07-15T03:01:17.177Z,509
2018-07-15T03:02:24.385Z,508
2018-07-15T03:03:31.323Z,508
2018-07-15T03:04:38.530Z,509
2018-07-15T03:05:45.802Z,509
2018-07-15T03:06:53.048Z,509
2018-07-15T03:07:59.983Z,508
2018-07-15T03:09:07.199Z,508
2018-07-15T03:10:14.407Z,507
2018-07-15T03:11:21.637Z,508
2018-07-15T03:12:28.849Z,508
2018-07-15T03:13:36.068Z,508
2018-07-15T03:14:43.002Z,507
2018-07-15T03:15:50.209Z,508
2018-07-15T03:16:57.423Z,508
2018-07-15T03:18:04.631Z,508
2018-07-15T03:19:11.838Z,507
2018-07-15T03:20:19.119Z,508
2018-07-15T03:21:26.327Z,507
2018-07-15T03:22:33.560Z,507
2018-07-15T03:23:40.777Z,507
2018-07-15T03:24:47.986Z,506
2018-07-15T03:25:55.195Z,506
2018-07-15T03:27:02.408Z,506
2018-07-15T03:28:09.618Z,508
2018-07-15T03:29:16.829Z,507
2018-07-15T03:30:24.040Z,507
2018-07-15T03:31:31.251Z,507
2018-07-15T03:32:38.463Z,507
2018-07-15T03:33:45.673Z,507
2018-07-15T03:34:52.882Z,507
2018-07-15T03:36:00.088Z,506
2018-07-15T03:37:07.304Z,506
2018-07-15T03:38:14.510Z,506
2018-07-15T03:39:21.718Z,506
2018-07-15T03:40:28.932Z,506
2018-07-15T03:41:36.142Z,506
2018-07-15T03:42:43.352Z,507
2018-07-15T03:43:50.570Z,506
2018-07-15T03:44:57.783Z,505
2018-07-15T03:46:04.993Z,506
2018-07-15T03:47:12.205Z,506
2018-07-15T03:48:19.423Z,506
2018-07-15T03:49:26.630Z,506
2018-07-15T03:50:33.843Z,506
2018-07-15T03:51:41.055Z,506
2018-07-15T03:52:48.273Z,506
2018-07-15T03:53:55.481Z,506
2018-07-15T03:55:02.920Z,506
2018-07-15T03:56:10.110Z,506
2018-07-15T03:57:17.325Z,506
2018-07-15T03:58:24.258Z,505
2018-07-15T03:59:31.464Z,506
2018-07-15T04:00:38.735Z,505
2018-07-15T04:01:45.998Z,505
2018-07-15T04:02:53.212Z,505
2018-07-15T04:04:00.150Z,505
2018-07-15T04:05:07.402Z,504
2018-07-15T04:06:14.616Z,506
2018-07-15T04:07:21.846Z,505
2018-07-15T04:08:29.206Z,505
2018-07-15T04:09:36.479Z,505
2018-07-15T04:10:43.686Z,505
2018-07-15T04:11:50.895Z,505
2018-07-15T04:12:58.104Z,505
2018-07-15T04:14:05.312Z,504
2018-07-15T04:15:12.522Z,504
2018-07-15T04:16:19.467Z,505
2018-07-15T04:17:26.680Z,504
2018-07-15T04:18:33.899Z,504
2018-07-15T04:19:41.111Z,505
2018-07-15T04:20:48.323Z,504
2018-07-15T04:21:55.531Z,504
2018-07-15T04:23:02.737Z,504
2018-07-15T04:24:09.672Z,504
2018-07-15T04:25:16.881Z,505
2018-07-15T04:26:24.089Z,504
2018-07-15T04:27:31.301Z,503
2018-07-15T04:28:38.508Z,503
2018-07-15T04:29:45.713Z,503
2018-07-15T04:30:52.648Z,503
2018-07-15T04:31:59.860Z,503
2018-07-15T04:33:07.072Z,503
2018-07-15T04:34:14.281Z,503
2018-07-15T04:35:21.492Z,503
2018-07-15T04:36:28.720Z,502
2018-07-15T04:37:35.928Z,502
2018-07-15T04:38:43.143Z,501
2018-07-15T04:39:50.349Z,501
2018-07-15T04:40:57.565Z,502
2018-07-15T04:42:04.777Z,501
2018-07-15T04:43:11.985Z,501
2018-07-15T04:44:19.196Z,501
2018-07-15T04:45:26.410Z,501
2018-07-15T04:46:33.613Z,501
2018-07-15T04:47:40.277Z,500
2018-07-15T04:48:47.486Z,500
2018-07-15T04:49:54.694Z,500
2018-07-15T04:51:16.565Z,501
2018-07-15T04:52:23.774Z,500
2018-07-15T04:53:30.987Z,500
2018-07-15T04:54:38.195Z,499
2018-07-15T04:55:45.408Z,499
2018-07-15T04:56:52.622Z,499
2018-07-15T04:57:59.831Z,500
2018-07-15T04:59:07.045Z,499
2018-07-15T05:00:14.254Z,498
2018-07-15T05:01:21.169Z,499
2018-07-15T05:02:28.381Z,498
2018-07-15T05:03:35.587Z,498
2018-07-15T05:04:42.802Z,498
2018-07-15T05:05:50.012Z,498
2018-07-15T05:06:57.224Z,498
2018-07-15T05:08:04.433Z,497
2018-07-15T05:09:11.369Z,497
2018-07-15T05:10:18.578Z,497
2018-07-15T05:11:26.141Z,497
2018-07-15T05:12:33.429Z,496
2018-07-15T05:13:40.641Z,497
2018-07-15T05:14:47.852Z,496
2018-07-15T05:15:55.072Z,496
2018-07-15T05:17:02.281Z,496
2018-07-15T05:18:09.491Z,496
2018-07-15T05:19:16.702Z,496
2018-07-15T05:20:23.908Z,495
2018-07-15T05:21:31.122Z,495
2018-07-15T05:22:38.350Z,495
2018-07-15T05:23:45.289Z,494
2018-07-15T05:24:52.603Z,495
2018-07-15T05:25:59.825Z,494
2018-07-15T05:27:07.035Z,494
2018-07-15T05:28:14.247Z,494
2018-07-15T05:29:21.186Z,493
2018-07-15T05:30:28.400Z,493
2018-07-15T05:31:35.608Z,492
2018-07-15T05:32:42.540Z,493
2018-07-15T05:33:49.748Z,493
2018-07-15T05:34:56.797Z,492
2018-07-15T05:36:03.879Z,492
2018-07-15T05:37:11.092Z,492
2018-07-15T05:38:18.321Z,491
2018-07-15T05:39:25.257Z,491
2018-07-15T05:40:32.467Z,490
2018-07-15T05:41:39.684Z,490
2018-07-15T05:42:46.896Z,490
2018-07-15T05:43:54.102Z,491
2018-07-15T05:45:01.310Z,489
2018-07-15T05:46:08.526Z,490
2018-07-15T05:47:15.734Z,490
2018-07-15T05:48:22.947Z,489
2018-07-15T05:49:30.159Z,488
2018-07-15T05:50:37.371Z,488
2018-07-15T05:51:44.669Z,488
2018-07-15T05:52:51.638Z,488
2018-07-15T05:53:58.852Z,488
2018-07-15T05:55:06.064Z,487
2018-07-15T05:56:13.282Z,486
2018-07-15T05:57:20.492Z,486
2018-07-15T05:58:27.709Z,487
2018-07-15T05:59:34.648Z,487
2018-07-15T06:00:41.861Z,486
2018-07-15T06:01:49.078Z,485
2018-07-15T06:02:56.293Z,486
2018-07-15T06:04:03.509Z,486
2018-07-15T06:05:10.724Z,486
2018-07-15T06:06:17.939Z,485
2018-07-15T06:07:25.149Z,484
2018-07-15T06:08:32.361Z,484
2018-07-15T06:09:39.579Z,484
2018-07-15T06:10:47.012Z,483
2018-07-15T06:11:54.164Z,483
2018-07-15T06:13:01.373Z,483
2018-07-15T06:14:08.592Z,483
2018-07-15T06:15:15.802Z,483
2018-07-15T06:16:23.015Z,482
2018-07-15T06:17:30.233Z,482
2018-07-15T06:18:37.444Z,482
2018-07-15T06:19:44.426Z,481
2018-07-15T06:20:51.641Z,481
2018-07-15T06:21:58.859Z,482
2018-07-15T06:23:06.073Z,482
2018-07-15T06:24:13.283Z,481
2018-07-15T06:25:20.495Z,481
2018-07-15T06:26:27.712Z,480
2018-07-15T06:27:34.638Z,480
2018-07-15T06:28:41.577Z,480
2018-07-15T06:29:48.788Z,480
2018-07-15T06:30:56.113Z,479
2018-07-15T06:32:03.335Z,479
2018-07-15T06:33:10.554Z,479
2018-07-15T06:34:17.769Z,479
2018-07-15T06:35:24.979Z,479
2018-07-15T06:36:32.197Z,478
2018-07-15T06:37:39.411Z,478
2018-07-15T06:38:46.628Z,478
2018-07-15T06:39:53.857Z,478
2018-07-15T06:41:01.067Z,478
2018-07-15T06:42:08.285Z,477
2018-07-15T06:43:15.498Z,477
2018-07-15T06:44:22.765Z,477
2018-07-15T06:45:29.985Z,477
2018-07-15T06:46:37.197Z,476
2018-07-15T06:47:44.411Z,476
2018-07-15T06:48:51.624Z,476
2018-07-15T06:49:58.840Z,477
2018-07-15T06:51:05.774Z,476
2018-07-15T06:52:12.993Z,476
2018-07-15T06:53:20.204Z,476
2018-07-15T06:54:27.418Z,476
2018-07-15T06:55:34.631Z,475
2018-07-15T06:56:41.847Z,475
2018-07-15T06:57:48.787Z,474
2018-07-15T06:58:56.000Z,474
2018-07-15T07:00:03.219Z,473
2018-07-15T07:01:10.449Z,473
2018-07-15T07:02:17.386Z,473
2018-07-15T07:03:24.629Z,472
2018-07-15T07:04:31.565Z,472
2018-07-15T07:05:38.774Z,472
2018-07-15T07:06:45.713Z,471
2018-07-15T07:07:52.936Z,472
2018-07-15T07:09:00.152Z,472
2018-07-15T07:10:07.365Z,472
2018-07-15T07:11:14.587Z,471
2018-07-15T07:12:21.801Z,470
2018-07-15T07:13:29.020Z,470
2018-07-15T07:14:36.238Z,471
2018-07-15T07:15:43.464Z,470
2018-07-15T07:16:50.681Z,470
2018-07-15T07:17:57.895Z,470
2018-07-15T07:19:05.112Z,470
2018-07-15T07:20:12.331Z,470
2018-07-15T07:21:19.547Z,470
2018-07-15T07:22:26.762Z,470
2018-07-15T07:23:33.699Z,469
2018-07-15T07:24:40.912Z,468
2018-07-15T07:25:48.134Z,469
2018-07-15T07:26:55.350Z,470
2018-07-15T07:28:02.564Z,470
2018-07-15T07:29:09.790Z,471
2018-07-15T07:30:16.992Z,472
2018-07-15T07:31:24.209Z,470
2018-07-15T07:32:31.425Z,470
2018-07-15T07:33:38.640Z,469
2018-07-15T07:34:45.580Z,468
2018-07-15T07:35:52.797Z,467
2018-07-15T07:37:00.011Z,467
2018-07-15T07:38:07.228Z,467
2018-07-15T07:39:14.178Z,466
2018-07-15T07:40:21.433Z,467
2018-07-15T07:41:28.368Z,466
2018-07-15T07:42:35.581Z,466
2018-07-15T07:43:42.799Z,467
2018-07-15T07:44:49.772Z,466
2018-07-15T07:45:56.984Z,465
2018-07-15T07:47:04.503Z,467
2018-07-15T07:48:11.850Z,467
2018-07-15T07:49:19.069Z,468
2018-07-15T07:50:25.741Z,466
2018-07-15T07:51:32.955Z,465
2018-07-15T07:52:40.202Z,466
2018-07-15T07:53:47.418Z,465
2018-07-15T07:54:54.634Z,467
2018-07-15T07:56:01.848Z,470
2018-07-15T07:57:09.076Z,470
2018-07-15T07:58:16.288Z,469
2018-07-15T07:59:23.505Z,467
2018-07-15T08:00:30.436Z,465
2018-07-15T08:01:37.657Z,463
2018-07-15T08:02:44.887Z,464
2018-07-15T08:03:52.113Z,464
2018-07-15T08:04:59.382Z,466
2018-07-15T08:06:06.589Z,466
2018-07-15T08:07:13.815Z,464
2018-07-15T08:08:21.023Z,462
2018-07-15T08:09:28.241Z,461
2018-07-15T08:10:35.451Z,461
2018-07-15T08:11:42.670Z,464
2018-07-15T08:12:49.904Z,464
2018-07-15T08:13:57.119Z,464
2018-07-15T08:15:04.057Z,462
2018-07-15T08:16:11.277Z,460
2018-07-15T08:17:18.494Z,459
2018-07-15T08:18:25.430Z,459
2018-07-15T08:19:32.648Z,460
2018-07-15T08:20:39.869Z,459
2018-07-15T08:21:47.080Z,458
2018-07-15T08:22:54.305Z,457
2018-07-15T08:24:01.528Z,459
2018-07-15T08:25:08.732Z,459
2018-07-15T08:26:15.953Z,459
2018-07-15T08:27:23.169Z,458
2018-07-15T08:28:31.177Z,457
2018-07-15T08:29:38.570Z,459
2018-07-15T08:30:45.501Z,457
2018-07-15T08:31:52.440Z,457
2018-07-15T08:32:59.658Z,457
2018-07-15T08:34:06.877Z,457
2018-07-15T08:35:14.095Z,457
2018-07-15T08:36:21.311Z,456
2018-07-15T08:37:28.533Z,456
2018-07-15T08:38:35.762Z,456
2018-07-15T08:39:42.979Z,456
2018-07-15T08:40:50.424Z,456
2018-07-15T08:41:57.652Z,456
2018-07-15T08:43:04.869Z,455
2018-07-15T08:44:12.090Z,455
2018-07-15T08:45:19.312Z,454
2018-07-15T08:46:26.540Z,455
2018-07-15T08:47:33.756Z,454
2018-07-15T08:48:40.976Z,457
2018-07-15T08:49:48.236Z,463
2018-07-15T08:50:55.458Z,463
2018-07-15T08:52:02.402Z,463
2018-07-15T08:53:09.619Z,462
2018-07-15T08:54:16.835Z,463
2018-07-15T08:55:24.092Z,462
2018-07-15T08:56:31.306Z,462
2018-07-15T08:57:38.528Z,463
2018-07-15T08:58:45.744Z,460
2018-07-15T08:59:52.962Z,457
2018-07-15T09:00:59.942Z,459
2018-07-15T09:02:07.148Z,459
2018-07-15T09:03:14.527Z,460
2018-07-15T09:04:21.844Z,458
2018-07-15T09:05:29.287Z,455
2018-07-15T09:06:36.496Z,453
2018-07-15T09:07:43.709Z,456
2018-07-15T09:08:50.932Z,458
2018-07-15T09:09:57.874Z,456
2018-07-15T09:11:05.092Z,454
2018-07-15T09:12:12.311Z,452
2018-07-15T09:13:19.527Z,451
2018-07-15T09:14:26.743Z,451
2018-07-15T09:15:33.965Z,450
2018-07-15T09:16:41.182Z,449
2018-07-15T09:17:48.121Z,447
2018-07-15T09:18:55.065Z,447
2018-07-15T09:20:02.288Z,448
2018-07-15T09:21:09.504Z,446
2018-07-15T09:22:16.724Z,446
2018-07-15T09:23:23.942Z,444
2018-07-15T09:24:31.162Z,443
2018-07-15T09:25:40.191Z,442
2018-07-15T09:26:48.186Z,445
2018-07-15T09:27:55.677Z,446
2018-07-15T09:29:02.962Z,445
2018-07-15T09:30:10.182Z,445
2018-07-15T09:31:17.390Z,450
2018-07-15T09:32:24.609Z,452
2018-07-15T09:33:31.824Z,449
2018-07-15T09:34:39.044Z,446
2018-07-15T09:35:46.261Z,446
2018-07-15T09:36:53.478Z,445
2018-07-15T09:38:00.700Z,447
2018-07-15T09:39:07.648Z,448
2018-07-15T09:40:14.865Z,451
2018-07-15T09:41:22.092Z,453
2018-07-15T09:42:29.311Z,455
2018-07-15T09:43:36.256Z,453
2018-07-15T09:44:43.476Z,452
2018-07-15T09:45:50.413Z,455
2018-07-15T09:46:57.638Z,455
2018-07-15T09:48:04.864Z,452
2018-07-15T09:49:12.080Z,449
2018-07-15T09:50:19.302Z,448
2018-07-15T09:51:26.516Z,450
2018-07-15T09:52:33.737Z,451
2018-07-15T09:53:40.954Z,453
2018-07-15T09:54:48.189Z,454
2018-07-15T09:55:55.141Z,455
2018-07-15T09:57:02.355Z,453
2018-07-15T09:58:09.620Z,450
2018-07-15T09:59:16.859Z,447
2018-07-15T10:00:24.075Z,444
2018-07-15T10:01:31.293Z,441
2018-07-15T10:02:38.514Z,439
2018-07-15T10:03:45.733Z,435
2018-07-15T10:04:52.680Z,436
2018-07-15T10:05:59.900Z,439
2018-07-15T10:07:07.122Z,441
2018-07-15T10:08:14.340Z,444
2018-07-15T10:09:21.330Z,443
2018-07-15T10:10:28.713Z,436
2018-07-15T10:11:36.024Z,431
2018-07-15T10:12:43.242Z,426
2018-07-15T10:13:50.464Z,428
2018-07-15T10:14:57.683Z,432
2018-07-15T10:16:04.416Z,432
2018-07-15T10:17:11.631Z,427
2018-07-15T10:18:18.849Z,431
2018-07-15T10:19:26.068Z,431
2018-07-15T10:20:33.294Z,433
2018-07-15T10:21:40.508Z,429
2018-07-15T10:22:47.729Z,433
2018-07-15T10:23:54.674Z,430
2018-07-15T10:25:01.895Z,430
2018-07-15T10:26:09.119Z,427
2018-07-15T10:27:16.066Z,424
2018-07-15T10:28:23.282Z,425
2018-07-15T10:29:30.502Z,428
2018-07-15T10:30:37.721Z,429
2018-07-15T10:31:44.941Z,430
2018-07-15T10:32:52.160Z,427
2018-07-15T10:33:59.394Z,426
2018-07-15T10:35:06.610Z,429
2018-07-15T10:36:13.560Z,428
2018-07-15T10:37:20.779Z,428
2018-07-15T10:38:27.926Z,430
2018-07-15T10:39:35.144Z,431
2018-07-15T10:40:42.359Z,431
2018-07-15T10:41:49.583Z,428
2018-07-15T10:42:56.803Z,424
2018-07-15T10:44:03.747Z,421
2018-07-15T10:45:10.974Z,410
2018-07-15T10:46:17.926Z,408
2018-07-15T10:47:25.189Z,404
2018-07-15T10:48:32.406Z,398
2018-07-15T10:49:39.642Z,403
2018-07-15T10:50:46.856Z,402
2018-07-15T10:51:54.078Z,410
2018-07-15T10:53:01.772Z,417
2018-07-15T10:54:09.050Z,426
2018-07-15T10:55:16.007Z,429
2018-07-15T10:56:23.225Z,440
2018-07-15T10:57:30.169Z,448
2018-07-15T10:58:37.119Z,453
2018-07-15T10:59:44.338Z,439
2018-07-15T11:00:51.358Z,428
2018-07-15T11:01:58.638Z,423
2018-07-15T11:03:05.871Z,419
2018-07-15T11:04:13.094Z,413
2018-07-15T11:05:20.318Z,404
2018-07-15T11:06:27.431Z,403
2018-07-15T11:07:34.867Z,399
2018-07-15T11:08:42.085Z,408
2018-07-15T11:09:49.312Z,419
2018-07-15T11:10:56.531Z,427
2018-07-15T11:12:03.753Z,442
2018-07-15T11:13:11.188Z,447
2018-07-15T11:14:18.411Z,447
2018-07-15T11:15:25.641Z,448
2018-07-15T11:16:33.078Z,451
2018-07-15T11:17:40.387Z,451
2018-07-15T11:18:47.619Z,452
2018-07-15T11:19:54.572Z,433
2018-07-15T11:21:01.786Z,417
2018-07-15T11:22:09.007Z,405
2018-07-15T11:23:16.236Z,402
2018-07-15T11:24:23.455Z,426
2018-07-15T11:25:30.683Z,436
2018-07-15T11:26:37.908Z,420
2018-07-15T11:27:45.863Z,437
2018-07-15T11:28:53.108Z,439
2018-07-15T11:30:00.327Z,438
2018-07-15T11:31:08.415Z,444
2018-07-15T11:32:16.002Z,448
2018-07-15T11:33:23.223Z,449
2018-07-15T11:34:30.443Z,450
2018-07-15T11:35:37.110Z,453
2018-07-15T11:36:44.330Z,456
2018-07-15T11:37:51.549Z,455
2018-07-15T11:38:58.632Z,455
2018-07-15T11:40:05.860Z,456
2018-07-15T11:41:13.079Z,457
2018-07-15T11:42:20.029Z,456
2018-07-15T11:43:27.249Z,456
2018-07-15T11:44:34.470Z,451
2018-07-15T11:45:41.696Z,432
2018-07-15T11:46:48.922Z,424
2018-07-15T11:47:56.137Z,413
2018-07-15T11:49:03.089Z,409
2018-07-15T11:50:10.040Z,408
2018-07-15T11:51:17.263Z,410
2018-07-15T11:52:24.485Z,407
2018-07-15T11:53:31.721Z,401
2018-07-15T11:54:39.297Z,396
2018-07-15T11:55:46.767Z,391
2018-07-15T11:56:53.987Z,398
2018-07-15T11:58:01.251Z,401
2018-07-15T11:59:08.470Z,403
2018-07-15T12:00:15.696Z,399
2018-07-15T12:01:22.919Z,421
2018-07-15T12:02:30.140Z,420
2018-07-15T12:03:37.359Z,439
2018-07-15T12:04:44.298Z,441
2018-07-15T12:05:51.239Z,420
2018-07-15T12:06:58.458Z,418
2018-07-15T12:08:05.410Z,411
2018-07-15T12:09:12.625Z,398
2018-07-15T12:10:19.842Z,406
2018-07-15T12:11:27.080Z,427
2018-07-15T12:12:34.304Z,436
2018-07-15T12:13:41.248Z,434
2018-07-15T12:14:48.466Z,437
2018-07-15T12:15:55.684Z,439
2018-07-15T12:17:02.908Z,428
2018-07-15T12:18:10.159Z,416
2018-07-15T12:19:17.383Z,423
2018-07-15T12:20:24.667Z,431
2018-07-15T12:21:31.970Z,437
2018-07-15T12:22:39.188Z,445
2018-07-15T12:23:46.408Z,446
2018-07-15T12:24:53.632Z,447
2018-07-15T12:26:00.853Z,447
2018-07-15T12:27:08.074Z,445
2018-07-15T12:28:15.398Z,445
2018-07-15T12:29:22.769Z,445
2018-07-15T12:30:29.986Z,443
2018-07-15T12:31:37.206Z,443
2018-07-15T12:32:44.433Z,446
2018-07-15T12:33:51.652Z,444
2018-07-15T12:34:58.871Z,445
2018-07-15T12:36:06.093Z,448
2018-07-15T12:37:13.311Z,450
2018-07-15T12:38:20.535Z,451
2018-07-15T12:39:27.752Z,451
2018-07-15T12:40:34.972Z,444
2018-07-15T12:41:42.191Z,433
2018-07-15T12:42:49.413Z,425
2018-07-15T12:43:56.628Z,430
2018-07-15T12:45:03.847Z,430
2018-07-15T12:46:11.066Z,428
2018-07-15T12:47:18.286Z,431
2018-07-15T12:48:25.509Z,432
2018-07-15T12:49:32.730Z,434
2018-07-15T12:50:39.945Z,432
2018-07-15T12:51:47.162Z,430
2018-07-15T12:52:54.382Z,431
2018-07-15T12:54:01.603Z,429
2018-07-15T12:55:08.823Z,434
2018-07-15T12:56:16.041Z,438
2018-07-15T12:57:23.255Z,440
2018-07-15T12:58:30.471Z,439
2018-07-15T12:59:37.696Z,443
2018-07-15T13:00:44.917Z,442
2018-07-15T13:01:52.138Z,443
2018-07-15T13:02:59.353Z,442
2018-07-15T13:04:06.578Z,442
2018-07-15T13:05:13.797Z,445
2018-07-15T13:06:21.018Z,444
2018-07-15T13:07:28.234Z,443
2018-07-15T13:08:35.533Z,442
2018-07-15T13:09:42.751Z,442
2018-07-15T13:10:50.019Z,445
2018-07-15T13:11:57.241Z,447
2018-07-15T13:13:04.467Z,449
2018-07-15T13:14:11.684Z,451
2018-07-15T13:15:18.906Z,450
2018-07-15T13:16:26.446Z,448
2018-07-15T13:17:33.633Z,447
2018-07-15T13:18:40.858Z,448
2018-07-15T13:19:48.078Z,449
2018-07-15T13:20:55.305Z,450
2018-07-15T13:22:02.523Z,451
2018-07-15T13:23:09.462Z,452
2018-07-15T13:24:16.681Z,451
2018-07-15T13:25:23.906Z,451
2018-07-15T13:26:31.118Z,451
2018-07-15T13:27:38.385Z,452
2018-07-15T13:28:45.611Z,452
2018-07-15T13:29:52.834Z,453
2018-07-15T13:31:00.055Z,453
2018-07-15T13:32:07.285Z,452
2018-07-15T13:33:14.507Z,452
2018-07-15T13:34:21.730Z,452
2018-07-15T13:35:28.980Z,449
2018-07-15T13:36:36.198Z,449
2018-07-15T13:37:43.425Z,448
2018-07-15T13:38:50.643Z,446
2018-07-15T13:39:58.069Z,445
2018-07-15T13:41:05.288Z,446
2018-07-15T13:42:12.511Z,446
2018-07-15T13:43:19.734Z,443
2018-07-15T13:44:26.962Z,442
2018-07-15T13:45:34.176Z,441
2018-07-15T13:46:41.392Z,440
2018-07-15T13:47:48.346Z,441
2018-07-15T13:48:55.591Z,440
2018-07-15T13:50:02.807Z,438
2018-07-15T13:51:10.400Z,438
2018-07-15T13:52:17.461Z,437
2018-07-15T13:53:24.679Z,434
2018-07-15T13:54:31.898Z,433
2018-07-15T13:55:39.138Z,433
2018-07-15T13:56:46.083Z,435
2018-07-15T13:57:53.302Z,436
2018-07-15T13:59:00.520Z,437
2018-07-15T14:00:07.742Z,437
2018-07-15T14:01:14.963Z,437
2018-07-15T14:02:22.184Z,437
2018-07-15T14:03:29.401Z,437
2018-07-15T14:04:36.618Z,436
2018-07-15T14:05:43.837Z,436
2018-07-15T14:06:51.066Z,436
2018-07-15T14:07:58.285Z,435
2018-07-15T14:09:05.502Z,435
2018-07-15T14:10:12.724Z,434
2018-07-15T14:11:19.946Z,434
2018-07-15T14:12:27.166Z,434
2018-07-15T14:13:34.392Z,432
2018-07-15T14:14:41.609Z,432
2018-07-15T14:15:48.834Z,432
2018-07-15T14:16:56.056Z,428
2018-07-15T14:18:02.997Z,422
2018-07-15T14:19:10.217Z,416
2018-07-15T14:20:17.432Z,412
2018-07-15T14:21:24.748Z,412
2018-07-15T14:22:32.100Z,412
2018-07-15T14:23:39.352Z,412
2018-07-15T14:24:46.565Z,412
2018-07-15T14:25:53.789Z,409
2018-07-15T14:27:00.729Z,409
2018-07-15T14:28:07.952Z,408
2018-07-15T14:29:15.175Z,407
2018-07-15T14:30:22.391Z,408
2018-07-15T14:31:29.609Z,408
2018-07-15T14:32:36.825Z,413
2018-07-15T14:33:44.047Z,416
2018-07-15T14:34:50.991Z,416
2018-07-15T14:35:58.208Z,414
2018-07-15T14:37:05.425Z,416
2018-07-15T14:38:12.650Z,420
2018-07-15T14:39:19.868Z,419
2018-07-15T14:40:27.096Z,419
2018-07-15T14:41:34.305Z,414
2018-07-15T14:42:41.521Z,420
2018-07-15T14:43:48.739Z,425
2018-07-15T14:44:55.956Z,428
2018-07-15T14:46:03.173Z,429
2018-07-15T14:47:10.390Z,427
2018-07-15T14:48:17.612Z,428
2018-07-15T14:49:24.827Z,428
2018-07-15T14:50:32.074Z,425
2018-07-15T14:51:39.296Z,423
2018-07-15T14:52:46.523Z,425
2018-07-15T14:53:53.743Z,424
2018-07-15T14:55:00.959Z,429
2018-07-15T14:56:08.471Z,431
2018-07-15T14:57:15.731Z,434
2018-07-15T14:58:22.950Z,437
2018-07-15T14:59:30.164Z,438
2018-07-15T15:00:37.391Z,439
2018-07-15T15:01:44.613Z,442
2018-07-15T15:02:51.557Z,443
2018-07-15T15:03:58.774Z,443
2018-07-15T15:05:06.000Z,442
2018-07-15T15:06:13.219Z,443
2018-07-15T15:07:20.440Z,444
2018-07-15T15:08:27.385Z,443
2018-07-15T15:09:34.606Z,442
2018-07-15T15:10:41.834Z,442
2018-07-15T15:11:49.054Z,441
2018-07-15T15:12:56.272Z,441
2018-07-15T15:14:03.491Z,440
2018-07-15T15:15:10.457Z,439
2018-07-15T15:16:17.679Z,438
2018-07-15T15:17:24.906Z,437
2018-07-15T15:18:32.135Z,440
2018-07-15T15:19:39.356Z,441
2018-07-15T15:20:46.577Z,441
2018-07-15T15:21:53.798Z,442
2018-07-15T15:23:01.016Z,443
2018-07-15T15:24:08.242Z,442
2018-07-15T15:25:15.457Z,441
2018-07-15T15:26:22.685Z,442